Time;durP1;ratioP1;P1;durP2;ratioP2;P2;SDS_P1;SDS_P2;PMS_P1;PMS_P2;Temp;Humidity;BMP_temperature;BMP_pressure;BME280_temperature;BME280_humidity;BME280_pressure;Samples;Min_cycle;Max_cycle;Signal;HPM_P1;HPM_P2
2023/01/29 00:02:05;;;;;;;19.75;12.00;;;4.90;99.90;;;;;;4974850;28;20045;-56
2023/01/29 00:04:31;;;;;;;21.98;12.02;;;4.90;99.90;;;;;;4955445;28;20077;-57
2023/01/29 00:06:58;;;;;;;20.48;12.52;;;5.00;99.90;;;;;;4942293;28;20390;-55
2023/01/29 00:09:23;;;;;;;17.25;11.98;;;5.00;99.90;;;;;;4975541;28;20050;-56
2023/01/29 00:11:49;;;;;;;18.70;12.90;;;5.00;99.90;;;;;;4954583;28;20278;-54
2023/01/29 00:14:15;;;;;;;20.30;12.90;;;5.00;99.90;;;;;;4954521;28;20046;-56
2023/01/29 00:16:40;;;;;;;19.77;13.07;;;5.00;99.90;;;;;;4954828;28;20046;-56
2023/01/29 00:19:06;;;;;;;18.55;12.40;;;5.00;99.90;;;;;;4953984;28;20390;-57
2023/01/29 00:21:32;;;;;;;18.20;11.75;;;5.00;99.90;;;;;;4964919;28;20089;-54
2023/01/29 00:23:58;;;;;;;16.98;11.38;;;5.00;99.90;;;;;;4943773;28;20065;-56
2023/01/29 00:26:25;;;;;;;16.20;10.32;;;5.00;99.90;;;;;;4962849;28;20081;-56
2023/01/29 00:28:51;;;;;;;15.73;10.07;;;5.00;99.90;;;;;;4977374;28;20034;-57
2023/01/29 00:31:22;;;;;;;16.17;10.23;;;5.00;99.90;;;;;;4959524;28;20050;-55
2023/01/29 00:33:48;;;;;;;13.63;9.57;;;5.00;99.90;;;;;;4975272;28;20485;-56
2023/01/29 00:36:16;;;;;;;14.52;9.20;;;5.00;99.90;;;;;;4938097;28;20076;-56
2023/01/29 00:38:43;;;;;;;18.77;10.00;;;5.00;99.90;;;;;;4964741;28;20034;-55
2023/01/29 00:46:44;;;;;;;11.82;7.68;;;5.00;99.90;;;;;;4973800;28;20114;-55
2023/01/29 00:49:10;;;;;;;13.38;9.27;;;5.00;99.90;;;;;;4972957;28;20042;-56
2023/01/29 00:51:37;;;;;;;12.90;8.68;;;5.00;99.90;;;;;;4959280;28;20120;-57
2023/01/29 00:54:05;;;;;;;12.85;7.72;;;5.00;99.90;;;;;;4959831;28;20095;-57
2023/01/29 00:56:33;;;;;;;15.38;7.15;;;5.00;99.90;;;;;;4964753;28;20213;-56
2023/01/29 00:58:59;;;;;;;13.57;8.05;;;5.00;99.90;;;;;;4955884;28;20730;-56
2023/01/29 01:04:11;;;;;;;13.50;7.95;;;5.00;99.90;;;;;;4960938;28;20038;-55
2023/01/29 01:06:42;;;;;;;14.95;8.52;;;5.00;99.90;;;;;;4956695;28;20038;-57
2023/01/29 01:11:53;;;;;;;12.98;7.90;;;5.10;99.90;;;;;;4960077;28;20054;-56
2023/01/29 01:14:20;;;;;;;13.20;8.82;;;5.00;99.90;;;;;;4954596;28;20125;-57
2023/01/29 01:16:46;;;;;;;14.35;8.02;;;5.00;99.90;;;;;;4952564;28;20053;-56
2023/01/29 01:19:13;;;;;;;12.35;8.07;;;5.10;99.90;;;;;;4961375;28;20083;-56
2023/01/29 01:21:39;;;;;;;12.88;8.20;;;5.10;99.90;;;;;;4956652;28;20648;-57
2023/01/29 01:24:05;;;;;;;10.50;7.72;;;5.10;99.90;;;;;;4942567;28;21767;-55
2023/01/29 01:26:32;;;;;;;15.98;9.38;;;5.10;99.90;;;;;;4959337;28;20038;-55
2023/01/29 01:28:58;;;;;;;13.07;8.93;;;5.10;99.90;;;;;;4956807;28;20053;-56
2023/01/29 01:31:24;;;;;;;15.23;10.40;;;5.10;99.90;;;;;;4943354;28;20047;-55
2023/01/29 01:33:50;;;;;;;15.55;10.18;;;5.10;99.90;;;;;;4939006;28;20069;-55
2023/01/29 01:36:17;;;;;;;15.27;10.30;;;5.10;99.90;;;;;;4949900;28;20421;-56
2023/01/29 01:38:43;;;;;;;16.40;10.68;;;5.10;99.90;;;;;;4972216;28;20117;-56
2023/01/29 01:41:15;;;;;;;16.83;10.77;;;5.10;99.90;;;;;;4957178;28;20137;-56
2023/01/29 01:43:58;;;;;;;18.00;12.75;;;5.10;99.90;;;;;;4944025;28;20073;-56
2023/01/29 01:46:28;;;;;;;15.15;11.82;;;5.10;99.90;;;;;;4954010;28;20030;-56
2023/01/29 01:49:14;;;;;;;20.20;12.70;;;5.10;99.90;;;;;;4960199;28;20045;-55
2023/01/29 01:51:45;;;;;;;22.02;13.52;;;5.10;99.90;;;;;;4960427;28;20038;-56
2023/01/29 01:54:22;;;;;;;19.17;11.60;;;5.10;99.90;;;;;;4981962;28;20600;-56
2023/01/29 01:56:54;;;;;;;18.75;13.10;;;5.20;99.90;;;;;;4945705;28;20541;-53
2023/01/29 01:59:22;;;;;;;18.27;12.82;;;5.10;99.90;;;;;;4972842;28;20461;-54
2023/01/29 02:01:52;;;;;;;18.00;12.43;;;5.10;99.90;;;;;;4963881;28;20042;-57
2023/01/29 02:10:19;;;;;;;23.15;14.30;;;5.10;99.90;;;;;;4960380;28;20082;-56
2023/01/29 02:12:45;;;;;;;22.15;14.95;;;5.10;99.90;;;;;;4957724;28;20049;-56
2023/01/29 02:15:12;;;;;;;18.92;12.93;;;5.10;99.90;;;;;;4942132;28;20046;-56
2023/01/29 02:17:38;;;;;;;18.55;12.55;;;5.10;99.90;;;;;;4955732;28;20315;-56
2023/01/29 02:20:25;;;;;;;20.95;13.30;;;5.10;99.90;;;;;;4940018;28;20421;-57
2023/01/29 02:23:25;;;;;;;20.33;13.55;;;5.10;99.90;;;;;;4941349;28;20050;-56
2023/01/29 02:26:49;;;;;;;22.65;14.90;;;5.10;99.90;;;;;;4956379;28;20051;-56
2023/01/29 02:29:51;;;;;;;19.40;14.00;;;5.10;99.90;;;;;;4919461;28;20047;-57
2023/01/29 02:32:28;;;;;;;22.15;14.65;;;5.10;99.90;;;;;;4914662;28;20098;-56
2023/01/29 02:38:11;;;;;;;22.95;15.93;;;5.10;99.90;;;;;;4971091;28;20409;-56
2023/01/29 02:41:19;;;;;;;24.48;16.33;;;5.10;99.90;;;;;;4943678;28;20275;-55
2023/01/29 02:44:12;;;;;;;21.83;14.85;;;5.10;99.90;;;;;;4902394;29;20063;-56
2023/01/29 02:46:46;;;;;;;22.23;14.63;;;5.10;99.90;;;;;;4897408;29;20051;-57
2023/01/29 02:49:36;;;;;;;24.17;15.90;;;5.10;99.90;;;;;;4943201;28;20058;-57
2023/01/29 02:52:22;;;;;;;22.35;15.20;;;5.10;99.90;;;;;;4966188;28;20061;-55
2023/01/29 02:55:03;;;;;;;22.40;15.50;;;5.10;99.90;;;;;;4975686;28;20046;-54
2023/01/29 02:57:36;;;;;;;24.35;16.23;;;5.10;99.90;;;;;;4954380;28;20042;-56
2023/01/29 03:00:19;;;;;;;21.07;15.87;;;5.10;99.90;;;;;;4959873;28;20165;-56
2023/01/29 03:03:08;;;;;;;24.92;16.23;;;5.00;99.90;;;;;;4947356;28;20301;-57
2023/01/29 03:05:53;;;;;;;23.90;15.93;;;5.00;99.90;;;;;;4956977;28;20121;-55
2023/01/29 03:08:41;;;;;;;23.88;17.25;;;5.00;99.90;;;;;;4960251;28;20061;-55
2023/01/29 03:11:13;;;;;;;22.45;15.32;;;5.00;99.90;;;;;;4963197;28;20050;-56
2023/01/29 03:14:12;;;;;;;24.65;16.58;;;5.00;99.90;;;;;;4961710;28;20042;-57
2023/01/29 03:16:50;;;;;;;22.88;15.45;;;5.00;99.90;;;;;;4956175;28;20506;-56
2023/01/29 03:19:38;;;;;;;28.05;17.25;;;5.00;99.90;;;;;;4957670;28;20050;-55
2023/01/29 03:22:07;;;;;;;25.42;17.05;;;5.00;99.90;;;;;;4959927;28;20515;-56
2023/01/29 03:33:12;;;;;;;25.00;17.25;;;5.00;99.90;;;;;;4961595;28;20409;-53
2023/01/29 03:35:47;;;;;;;25.77;17.45;;;5.00;99.90;;;;;;4960216;28;20042;-56
2023/01/29 03:38:14;;;;;;;28.30;18.15;;;5.00;99.90;;;;;;4984616;28;20034;-57
2023/01/29 03:40:52;;;;;;;25.85;17.17;;;5.00;99.90;;;;;;4959545;28;20074;-53
2023/01/29 03:43:44;;;;;;;26.05;18.15;;;5.00;99.90;;;;;;4963581;28;20039;-56
2023/01/29 03:46:30;;;;;;;27.65;18.08;;;5.00;99.90;;;;;;4944420;28;20030;-56
2023/01/29 03:49:25;;;;;;;25.58;18.40;;;5.00;99.90;;;;;;4959914;28;20069;-56
2023/01/29 03:51:51;;;;;;;29.70;19.05;;;5.00;99.90;;;;;;4960484;28;20658;-56
2023/01/29 03:54:35;;;;;;;29.90;19.67;;;5.00;99.90;;;;;;4962304;28;20057;-54
2023/01/29 03:57:24;;;;;;;30.95;20.98;;;5.00;99.90;;;;;;4958269;28;20283;-53
2023/01/29 04:00:26;;;;;;;28.88;19.95;;;5.10;99.90;;;;;;4961149;28;20402;-57
2023/01/29 04:03:07;;;;;;;29.08;18.42;;;5.10;99.90;;;;;;4961453;28;20509;-55
2023/01/29 04:05:45;;;;;;;28.23;18.80;;;5.10;99.90;;;;;;4950856;28;20532;-56
2023/01/29 04:08:18;;;;;;;27.33;17.70;;;5.10;99.90;;;;;;4961159;28;20149;-55
2023/01/29 04:10:45;;;;;;;27.55;17.65;;;5.10;99.90;;;;;;4955672;28;20038;-54
2023/01/29 04:13:14;;;;;;;27.20;18.27;;;5.10;99.90;;;;;;4962474;28;20560;-56
2023/01/29 04:15:48;;;;;;;25.23;17.55;;;5.10;99.90;;;;;;4960640;28;20053;-56
2023/01/29 04:18:14;;;;;;;24.02;17.27;;;5.10;99.90;;;;;;4977761;28;20401;-57
2023/01/29 04:20:40;;;;;;;24.80;17.15;;;5.10;99.90;;;;;;4963660;28;20093;-57
2023/01/29 04:23:17;;;;;;;24.90;16.33;;;5.10;99.90;;;;;;4964264;28;20396;-57
2023/01/29 04:25:49;;;;;;;22.13;16.23;;;5.10;99.90;;;;;;4960741;28;20048;-56
2023/01/29 04:28:15;;;;;;;22.05;15.82;;;5.10;99.90;;;;;;4960345;28;20185;-57
2023/01/29 04:30:53;;;;;;;24.67;17.30;;;5.10;99.90;;;;;;4965025;28;20047;-56
2023/01/29 04:33:29;;;;;;;26.02;16.65;;;5.10;99.90;;;;;;4963070;28;20041;-57
2023/01/29 04:36:13;;;;;;;22.30;16.13;;;5.10;99.90;;;;;;4963647;28;20061;-56
2023/01/29 04:39:01;;;;;;;21.60;15.70;;;5.10;99.90;;;;;;4965222;28;20092;-57
2023/01/29 04:41:35;;;;;;;22.48;15.98;;;5.10;99.90;;;;;;4983941;28;20049;-53
2023/01/29 04:44:22;;;;;;;19.58;15.55;;;5.10;99.90;;;;;;4980046;28;20045;-57
2023/01/29 04:47:03;;;;;;;22.98;16.13;;;5.10;99.90;;;;;;4971943;28;20046;-57
2023/01/29 04:49:46;;;;;;;22.65;15.82;;;5.10;99.90;;;;;;4940681;28;20050;-57
2023/01/29 04:52:39;;;;;;;22.87;15.70;;;5.10;99.90;;;;;;4968739;28;20050;-55
2023/01/29 04:55:07;;;;;;;22.70;15.77;;;5.10;99.90;;;;;;4951161;28;20076;-54
2023/01/29 04:57:46;;;;;;;21.67;14.88;;;5.10;99.90;;;;;;4939276;28;20077;-55
2023/01/29 05:00:24;;;;;;;20.08;15.05;;;5.10;99.90;;;;;;4962060;28;20082;-58
2023/01/29 05:02:51;;;;;;;21.23;15.77;;;5.10;99.90;;;;;;4957116;28;20069;-57
2023/01/29 05:05:19;;;;;;;22.13;16.38;;;5.10;99.90;;;;;;4953864;28;20034;-57
2023/01/29 05:07:46;;;;;;;26.25;15.88;;;5.10;99.90;;;;;;4957574;28;20149;-56
2023/01/29 05:10:14;;;;;;;20.85;15.43;;;5.10;99.90;;;;;;4948026;28;20051;-57
2023/01/29 05:12:44;;;;;;;22.63;15.15;;;5.10;99.90;;;;;;4958222;28;21199;-56
2023/01/29 05:15:17;;;;;;;21.58;15.75;;;5.10;99.90;;;;;;4963869;28;20045;-58
2023/01/29 05:17:43;;;;;;;;;;;5.10;99.90;;;;;;4960299;28;21705;-55
2023/01/29 05:20:11;;;;;;;19.23;14.82;;;5.10;99.90;;;;;;4958631;28;19922;-57
2023/01/29 05:22:40;;;;;;;20.17;14.70;;;5.10;99.90;;;;;;4942456;28;20042;-56
2023/01/29 05:25:24;;;;;;;20.10;14.82;;;5.10;99.90;;;;;;4958225;28;20042;-53
2023/01/29 05:28:02;;;;;;;19.35;15.32;;;5.10;99.90;;;;;;4957762;28;20145;-56
2023/01/29 05:30:28;;;;;;;21.40;14.73;;;5.10;99.90;;;;;;4970204;28;20065;-56
2023/01/29 05:32:54;;;;;;;20.88;14.73;;;5.10;99.90;;;;;;4942999;28;20513;-54
2023/01/29 05:35:20;;;;;;;19.33;14.05;;;5.10;99.90;;;;;;4926925;28;20049;-57
2023/01/29 05:37:45;;;;;;;19.33;13.57;;;5.10;99.90;;;;;;4967461;28;20045;-56
2023/01/29 05:40:11;;;;;;;18.90;13.73;;;5.10;99.90;;;;;;4956087;28;20556;-56
2023/01/29 05:42:37;;;;;;;19.52;14.25;;;5.10;99.90;;;;;;4966738;28;20157;-57
2023/01/29 05:45:03;;;;;;;19.83;14.65;;;5.20;99.90;;;;;;4962548;28;20042;-57
2023/01/29 05:47:29;;;;;;;18.92;13.23;;;5.10;99.90;;;;;;4964048;28;20516;-54
2023/01/29 05:49:55;;;;;;;19.35;14.30;;;5.10;99.90;;;;;;4943020;28;20562;-56
2023/01/29 05:52:20;;;;;;;21.23;14.48;;;5.10;99.90;;;;;;4961713;28;20046;-56
2023/01/29 05:54:46;;;;;;;20.38;15.45;;;5.20;99.90;;;;;;4958989;28;20061;-57
2023/01/29 05:59:49;;;;;;;20.45;15.00;;;5.10;99.90;;;;;;4999573;28;20058;-80
2023/01/29 06:02:15;;;;;;;22.85;16.90;;;5.10;99.90;;;;;;4969708;28;20053;-78
2023/01/29 06:04:41;;;;;;;22.73;16.85;;;5.10;99.90;;;;;;4977275;28;20076;-81
2023/01/29 06:07:06;;;;;;;23.13;17.02;;;5.10;99.90;;;;;;4987289;28;20561;-80
2023/01/29 06:09:32;;;;;;;29.27;19.15;;;5.20;99.90;;;;;;4957675;28;20068;-80
2023/01/29 06:11:58;;;;;;;23.88;18.25;;;5.10;99.90;;;;;;4968584;28;20069;-79
2023/01/29 06:14:23;;;;;;;28.48;20.35;;;5.10;99.90;;;;;;4983258;28;20049;-78
2023/01/29 06:16:49;;;;;;;31.70;20.35;;;5.10;99.90;;;;;;4968310;28;20053;-79
2023/01/29 06:19:16;;;;;;;30.92;20.63;;;5.10;99.90;;;;;;4996904;28;20046;-80
2023/01/29 06:21:42;;;;;;;33.17;22.05;;;5.10;99.90;;;;;;4966017;28;20116;-81
2023/01/29 06:24:08;;;;;;;35.50;23.63;;;5.10;99.90;;;;;;4957915;28;20582;-80
2023/01/29 06:26:34;;;;;;;36.67;23.88;;;5.10;99.90;;;;;;4987908;28;20109;-80
2023/01/29 06:28:59;;;;;;;38.35;23.58;;;5.10;99.90;;;;;;4973396;28;20045;-80
2023/01/29 06:31:25;;;;;;;38.33;24.27;;;5.20;99.90;;;;;;4982275;28;20070;-81
2023/01/29 06:33:51;;;;;;;33.72;22.45;;;5.00;99.90;;;;;;4987307;28;20050;-80
2023/01/29 06:36:16;;;;;;;33.30;22.73;;;5.00;99.90;;;;;;4974822;28;20065;-80
2023/01/29 06:38:42;;;;;;;36.80;23.40;;;5.00;99.90;;;;;;4986255;28;20026;-80
2023/01/29 06:41:14;;;;;;;32.35;23.27;;;5.00;99.90;;;;;;4955459;28;20042;-81
2023/01/29 06:43:42;;;;;;;36.88;22.90;;;5.00;99.90;;;;;;5007655;28;20418;-80
2023/01/29 06:46:08;;;;;;;39.50;25.20;;;5.00;99.90;;;;;;4991742;28;20030;-80
2023/01/29 06:48:34;;;;;;;38.35;24.23;;;5.00;99.90;;;;;;4991093;28;20409;-79
2023/01/29 06:51:05;;;;;;;40.13;23.20;;;5.00;99.90;;;;;;4974034;28;20041;-80
2023/01/29 06:53:33;;;;;;;35.15;24.10;;;4.90;99.90;;;;;;4971405;28;20068;-78
2023/01/29 06:55:58;;;;;;;36.30;23.70;;;5.00;99.90;;;;;;4953114;28;20046;-80
2023/01/29 06:58:24;;;;;;;36.20;24.30;;;4.90;99.90;;;;;;4962608;28;20069;-79
2023/01/29 07:00:50;;;;;;;39.05;25.15;;;4.80;99.90;;;;;;4989306;28;20049;-79
2023/01/29 07:03:16;;;;;;;38.15;24.92;;;4.90;99.90;;;;;;4991272;28;20041;-80
2023/01/29 07:05:41;;;;;;;38.22;25.08;;;4.80;99.90;;;;;;4971485;28;20490;-80
2023/01/29 07:08:08;;;;;;;38.20;24.33;;;5.10;99.90;;;;;;4975989;28;20120;-81
2023/01/29 07:10:34;;;;;;;36.95;24.95;;;4.80;99.90;;;;;;4967391;28;20129;-80
2023/01/29 07:13:00;;;;;;;38.50;25.33;;;4.90;99.90;;;;;;4988396;28;20387;-77
2023/01/29 07:15:26;;;;;;;40.63;25.63;;;4.90;99.90;;;;;;4975973;28;20129;-78
2023/01/29 07:18:00;;;;;;;35.30;24.65;;;4.80;99.90;;;;;;4987673;28;20087;-80
2023/01/29 07:20:27;;;;;;;39.55;25.65;;;4.90;99.90;;;;;;4983895;28;20050;-80
2023/01/29 07:22:53;;;;;;;39.50;25.30;;;4.80;99.90;;;;;;4976741;28;20034;-81
2023/01/29 07:25:21;;;;;;;38.88;26.73;;;4.90;99.90;;;;;;4993961;28;20541;-83
2023/01/29 07:27:46;;;;;;;38.15;26.13;;;5.00;99.90;;;;;;4990066;28;20200;-78
2023/01/29 07:30:12;;;;;;;37.38;25.65;;;4.80;99.90;;;;;;4974652;28;20556;-78
2023/01/29 07:32:38;;;;;;;41.13;26.25;;;4.80;99.90;;;;;;4989547;28;20100;-80
2023/01/29 07:35:04;;;;;;;40.15;27.10;;;4.80;99.90;;;;;;4978245;28;20052;-82
2023/01/29 07:37:30;;;;;;;43.00;27.08;;;4.80;99.90;;;;;;4972569;28;20205;-79
2023/01/29 07:39:56;;;;;;;44.88;28.73;;;4.80;99.90;;;;;;4992849;28;20537;-79
2023/01/29 07:42:22;;;;;;;43.17;29.55;;;4.80;99.90;;;;;;4992247;28;20041;-79
2023/01/29 07:44:47;;;;;;;47.65;30.92;;;4.80;99.90;;;;;;4965832;28;20057;-80
2023/01/29 07:47:13;;;;;;;49.08;30.92;;;4.80;99.90;;;;;;4992842;28;20029;-80
2023/01/29 07:49:39;;;;;;;45.78;29.88;;;4.80;99.90;;;;;;4971517;28;20033;-79
2023/01/29 07:52:04;;;;;;;46.70;30.45;;;5.10;99.90;;;;;;4972851;28;20038;-82
2023/01/29 07:54:30;;;;;;;54.40;32.47;;;4.80;99.90;;;;;;4977917;28;20046;-79
2023/01/29 07:56:56;;;;;;;49.63;31.73;;;4.80;99.90;;;;;;5005967;28;20048;-80
2023/01/29 07:59:21;;;;;;;52.05;31.30;;;4.80;99.90;;;;;;4958230;28;20049;-80
2023/01/29 08:01:47;;;;;;;48.90;31.17;;;4.80;99.90;;;;;;4968914;28;20597;-82
2023/01/29 08:04:13;;;;;;;54.25;32.53;;;5.10;99.90;;;;;;4974903;28;20042;-80
2023/01/29 08:06:39;;;;;;;56.50;32.42;;;4.80;99.90;;;;;;4952687;28;20081;-79
2023/01/29 08:09:05;;;;;;;53.85;32.80;;;4.90;99.90;;;;;;4989233;28;20061;-80
2023/01/29 08:11:30;;;;;;;53.75;33.25;;;4.80;99.90;;;;;;4958242;28;20042;-80
2023/01/29 08:13:56;;;;;;;55.17;32.60;;;4.80;99.90;;;;;;4960402;28;20495;-81
2023/01/29 08:16:22;;;;;;;60.72;36.38;;;4.80;99.90;;;;;;4972438;28;20162;-84
2023/01/29 08:18:48;;;;;;;57.63;35.20;;;4.80;99.90;;;;;;4961528;28;20038;-80
2023/01/29 08:21:14;;;;;;;53.90;33.78;;;4.90;99.90;;;;;;4972559;28;21775;-79
2023/01/29 08:23:43;;;;;;;55.05;34.22;;;4.80;99.90;;;;;;4953595;28;20026;-80
2023/01/29 08:26:08;;;;;;;54.35;33.85;;;4.80;99.90;;;;;;4995671;28;20072;-80
2023/01/29 08:28:40;;;;;;;64.65;35.63;;;4.80;99.90;;;;;;4990963;28;20536;-80
2023/01/29 08:31:16;;;;;;;54.35;32.30;;;4.80;99.90;;;;;;4972606;28;20053;-79
2023/01/29 08:33:41;;;;;;;54.50;33.60;;;4.80;99.90;;;;;;4989999;28;20054;-80
2023/01/29 08:36:08;;;;;;;55.90;34.72;;;4.90;99.90;;;;;;4973988;28;20042;-81
2023/01/29 08:38:43;;;;;;;53.53;32.97;;;4.90;99.90;;;;;;4994324;28;20048;-80
2023/01/29 08:41:09;;;;;;;53.85;34.42;;;4.90;99.90;;;;;;4950291;28;20077;-80
2023/01/29 08:43:35;;;;;;;58.92;34.67;;;4.90;99.90;;;;;;4984114;28;20046;-79
2023/01/29 08:46:03;;;;;;;53.97;32.80;;;5.10;99.90;;;;;;4973056;28;20072;-79
2023/01/29 08:48:29;;;;;;;57.75;35.10;;;4.90;99.90;;;;;;4985600;28;20049;-79
2023/01/29 08:51:07;;;;;;;50.55;32.20;;;5.00;99.90;;;;;;4966451;28;20100;-80
2023/01/29 08:53:33;;;;;;;59.78;34.72;;;5.00;99.90;;;;;;4984206;28;20529;-80
2023/01/29 08:55:59;;;;;;;49.97;33.22;;;5.00;99.90;;;;;;4986043;28;20038;-79
2023/01/29 08:58:25;;;;;;;50.63;32.17;;;5.20;99.90;;;;;;4949415;28;20042;-78
2023/01/29 09:00:50;;;;;;;51.90;33.00;;;5.00;99.90;;;;;;4963577;28;20042;-80
2023/01/29 09:03:16;;;;;;;56.60;32.75;;;5.00;99.90;;;;;;4972702;28;20042;-79
2023/01/29 09:05:45;;;;;;;52.90;31.75;;;5.00;99.90;;;;;;4987968;28;20050;-79
2023/01/29 09:08:14;;;;;;;52.65;33.78;;;5.00;99.90;;;;;;4936655;28;20657;-80
2023/01/29 09:10:40;;;;;;;53.50;32.75;;;5.10;99.90;;;;;;4988397;28;20049;-79
2023/01/29 09:13:05;;;;;;;53.08;32.50;;;5.10;99.90;;;;;;4970708;28;20038;-80
2023/01/29 09:15:31;;;;;;;53.88;31.00;;;5.10;99.90;;;;;;4985655;28;20510;-80
2023/01/29 09:17:57;;;;;;;52.28;32.35;;;5.10;99.90;;;;;;4981848;28;20061;-80
2023/01/29 09:20:26;;;;;;;48.92;31.02;;;5.10;99.90;;;;;;4979858;28;20076;-80
2023/01/29 09:22:55;;;;;;;50.88;32.33;;;5.10;99.90;;;;;;4954366;28;20068;-80
2023/01/29 09:25:21;;;;;;;54.83;32.42;;;5.10;99.90;;;;;;4984416;28;20042;-80
2023/01/29 09:27:46;;;;;;;56.45;32.95;;;5.10;99.90;;;;;;4954359;28;20590;-79
2023/01/29 09:30:12;;;;;;;51.75;31.92;;;5.10;99.90;;;;;;4964643;28;20038;-78
2023/01/29 09:32:50;;;;;;;54.00;33.08;;;5.10;99.90;;;;;;4967437;28;20038;-80
2023/01/29 09:35:16;;;;;;;48.83;31.08;;;5.10;99.90;;;;;;4969585;28;20486;-80
2023/01/29 09:37:46;;;;;;;54.05;31.30;;;5.10;99.90;;;;;;4974075;23;20066;-61
2023/01/29 09:40:43;;;;;;;59.10;34.20;;;5.10;99.90;;;;;;4970118;28;20057;-62
2023/01/29 09:43:53;;;;;;;51.00;30.70;;;5.10;99.90;;;;;;4976849;28;20468;-62
2023/01/29 09:46:43;;;;;;;56.90;32.85;;;5.20;99.90;;;;;;4955992;28;20119;-61
2023/01/29 09:49:40;;;;;;;55.05;32.67;;;5.20;99.90;;;;;;4942618;28;20611;-60
2023/01/29 09:52:24;;;;;;;53.00;32.10;;;5.10;99.90;;;;;;4951731;28;20042;-59
2023/01/29 09:54:59;;;;;;;56.65;34.88;;;5.20;99.90;;;;;;4971275;28;20050;-62
2023/01/29 09:57:33;;;;;;;60.40;34.05;;;5.10;99.90;;;;;;4969494;28;20049;-60
2023/01/29 09:59:58;;;;;;;53.63;31.88;;;5.10;99.90;;;;;;4968956;28;22171;-61
2023/01/29 10:02:45;;;;;;;55.78;32.15;;;5.20;99.90;;;;;;4963324;28;20035;-61
2023/01/29 10:05:23;;;;;;;54.70;33.80;;;5.20;99.90;;;;;;4954782;28;20048;-61
2023/01/29 10:08:23;;;;;;;54.78;33.60;;;5.20;99.90;;;;;;4950767;28;20053;-60
2023/01/29 10:10:57;;;;;;;57.45;34.85;;;5.20;99.90;;;;;;4959503;28;20097;-62
2023/01/29 10:14:02;;;;;;;60.67;36.55;;;5.20;99.90;;;;;;4963934;28;20049;-61
2023/01/29 10:16:47;;;;;;;57.72;33.63;;;5.20;99.90;;;;;;4957575;28;20137;-61
2023/01/29 10:19:36;;;;;;;64.18;34.10;;;5.20;99.90;;;;;;4981726;28;20130;-61
2023/01/29 10:22:41;;;;;;;57.63;35.22;;;5.20;99.90;;;;;;4973203;28;20186;-60
2023/01/29 10:25:12;;;;;;;;;;;5.20;99.90;;;;;;4888693;29;20468;-60
2023/01/29 10:27:57;;;;;;;58.03;33.13;;;5.20;99.90;;;;;;4902537;29;19919;-61
2023/01/29 10:30:32;;;;;;;52.60;32.38;;;5.20;99.90;;;;;;4936978;28;20401;-61
2023/01/29 10:33:02;;;;;;;56.88;33.25;;;5.20;99.90;;;;;;4974729;28;20169;-62
2023/01/29 10:35:38;;;;;;;56.65;33.28;;;5.30;99.90;;;;;;4959309;28;20533;-61
2023/01/29 10:38:32;;;;;;;60.42;33.70;;;5.30;99.90;;;;;;4977099;28;20086;-60
2023/01/29 10:40:57;;;;;;;63.90;33.53;;;5.30;99.90;;;;;;4980927;28;20584;-61
2023/01/29 10:43:37;;;;;;;59.85;34.28;;;5.30;99.90;;;;;;4960804;28;20042;-61
2023/01/29 10:46:15;;;;;;;56.50;32.28;;;5.30;99.90;;;;;;4975470;28;20174;-61
2023/01/29 10:49:11;;;;;;;53.78;32.58;;;5.40;99.90;;;;;;4982712;28;20042;-62
2023/01/29 10:51:47;;;;;;;56.97;31.90;;;5.40;99.90;;;;;;4977052;28;20389;-60
2023/01/29 10:54:32;;;;;;;58.88;31.45;;;5.40;99.90;;;;;;4973471;28;20675;-61
2023/01/29 10:57:06;;;;;;;58.15;30.52;;;5.40;99.90;;;;;;4977486;28;20042;-61
2023/01/29 10:59:45;;;;;;;50.70;27.83;;;5.50;99.90;;;;;;4976294;28;20038;-60
2023/01/29 11:02:16;;;;;;;50.72;28.83;;;5.50;99.90;;;;;;4979007;28;20125;-61
2023/01/29 11:04:42;;;;;;;52.92;28.60;;;5.50;99.90;;;;;;4973810;28;20101;-61
2023/01/29 11:07:09;;;;;;;43.35;25.92;;;5.50;99.90;;;;;;4954491;28;20134;-62
2023/01/29 11:09:59;;;;;;;39.28;24.73;;;5.50;99.90;;;;;;4979682;28;20490;-59
2023/01/29 11:12:30;;;;;;;44.95;23.83;;;5.60;99.90;;;;;;4962465;28;20169;-61
2023/01/29 11:15:06;;;;;;;40.90;22.05;;;5.60;99.90;;;;;;4960622;28;20043;-61
2023/01/29 11:17:31;;;;;;;39.40;22.02;;;5.70;99.90;;;;;;4942491;28;20681;-60
2023/01/29 11:19:57;;;;;;;38.72;22.00;;;5.70;99.90;;;;;;4972947;28;20128;-61
2023/01/29 11:22:26;;;;;;;39.85;23.17;;;5.70;99.90;;;;;;4971915;28;20038;-61
2023/01/29 11:25:16;;;;;;;42.85;24.25;;;5.70;99.90;;;;;;4979300;28;20360;-61
2023/01/29 11:27:56;;;;;;;43.03;25.13;;;5.80;99.90;;;;;;4963501;28;20104;-59
2023/01/29 11:30:24;;;;;;;44.90;25.83;;;5.80;99.90;;;;;;4955189;28;20454;-60
2023/01/29 11:33:22;;;;;;;43.72;25.30;;;5.80;99.90;;;;;;4957158;28;20144;-61
2023/01/29 11:35:48;;;;;;;45.35;25.10;;;5.80;99.90;;;;;;4974986;28;20046;-61
2023/01/29 11:38:22;;;;;;;47.78;26.77;;;5.80;99.90;;;;;;4953339;28;20053;-60
2023/01/29 11:40:48;;;;;;;;;;;5.90;99.90;;;;;;4978859;28;20121;-61
2023/01/29 11:43:22;;;;;;;38.45;22.38;;;5.90;99.90;;;;;;4961967;28;20739;-62
2023/01/29 11:45:51;;;;;;;47.35;25.63;;;5.90;99.90;;;;;;4979727;28;20772;-61
2023/01/29 11:48:23;;;;;;;44.47;25.05;;;5.90;99.90;;;;;;4966430;28;20042;-60
2023/01/29 11:50:56;;;;;;;39.60;25.27;;;5.90;99.90;;;;;;4971377;28;20120;-62
2023/01/29 11:53:42;;;;;;;44.42;23.02;;;6.00;99.90;;;;;;4961192;28;20043;-60
2023/01/29 11:56:47;;;;;;;37.75;23.05;;;6.00;99.90;;;;;;4964899;28;20157;-61
2023/01/29 11:59:36;;;;;;;38.40;23.83;;;5.90;99.90;;;;;;4890991;29;20054;-61
2023/01/29 12:02:18;;;;;;;43.83;25.08;;;5.90;99.90;;;;;;4875616;29;20059;-60
2023/01/29 12:04:44;;;;;;;41.28;24.45;;;6.00;99.90;;;;;;4935502;28;20085;-61
2023/01/29 12:07:16;;;;;;;45.28;26.33;;;5.90;99.90;;;;;;4978448;28;20073;-61
2023/01/29 12:09:55;;;;;;;42.40;25.08;;;5.90;99.90;;;;;;4978851;28;20050;-61
2023/01/29 12:12:31;;;;;;;43.45;24.92;;;5.90;99.90;;;;;;4977409;28;20129;-60
2023/01/29 12:15:18;;;;;;;43.03;25.30;;;5.80;99.90;;;;;;4974435;28;20102;-62
2023/01/29 12:17:57;;;;;;;47.85;28.67;;;5.80;99.90;;;;;;5001651;23;20921;-63
2023/01/29 12:20:29;;;;;;;46.65;28.20;;;5.80;99.90;;;;;;4978982;28;20050;-63
2023/01/29 12:23:22;;;;;;;49.83;29.75;;;5.70;99.90;;;;;;4983080;28;20042;-63
2023/01/29 12:26:22;;;;;;;49.67;29.42;;;5.70;99.90;;;;;;4982407;28;20056;-63
2023/01/29 12:29:08;;;;;;;48.65;28.90;;;5.70;99.90;;;;;;4984705;28;20074;-62
2023/01/29 12:31:52;;;;;;;45.38;26.60;;;5.70;99.90;;;;;;4987497;28;20050;-63
2023/01/29 12:34:23;;;;;;;49.10;29.35;;;5.70;99.90;;;;;;5003686;28;20116;-62
2023/01/29 12:36:53;;;;;;;45.88;27.30;;;5.70;99.90;;;;;;4974478;28;20060;-62
2023/01/29 12:39:20;;;;;;;42.83;26.35;;;5.70;99.90;;;;;;4990866;28;20121;-62
2023/01/29 12:42:22;;;;;;;42.03;25.70;;;5.60;99.90;;;;;;4991672;28;20153;-62
2023/01/29 12:45:00;;;;;;;43.83;26.95;;;5.60;99.90;;;;;;4984560;28;20109;-62
2023/01/29 12:47:40;;;;;;;46.20;27.65;;;5.60;99.90;;;;;;4990523;28;20069;-61
2023/01/29 12:50:19;;;;;;;49.97;28.58;;;5.60;99.90;;;;;;4974889;28;20049;-62
2023/01/29 12:53:18;;;;;;;51.22;29.15;;;5.50;99.90;;;;;;5056105;27;20934;-59
2023/01/29 12:55:55;;;;;;;52.70;30.95;;;5.50;99.90;;;;;;5042634;28;20048;-59
2023/01/29 12:58:34;;;;;;;58.78;33.45;;;5.50;99.90;;;;;;5038808;28;20132;-59
2023/01/29 13:01:30;;;;;;;53.80;31.00;;;5.50;99.90;;;;;;5037166;28;20531;-59
2023/01/29 13:04:14;;;;;;;59.17;33.33;;;5.50;99.90;;;;;;5041132;28;20357;-59
2023/01/29 13:06:46;;;;;;;58.88;31.00;;;5.50;99.90;;;;;;5039120;28;20072;-59
2023/01/29 13:09:18;;;;;;;50.28;31.45;;;5.50;99.90;;;;;;5037861;28;20041;-58
2023/01/29 13:12:01;;;;;;;41.90;26.92;;;5.40;99.90;;;;;;5039348;28;20047;-59
2023/01/29 13:15:01;;;;;;;41.30;26.35;;;5.40;99.90;;;;;;5032319;28;20469;-59
2023/01/29 13:17:33;;;;;;;40.22;26.48;;;5.40;99.90;;;;;;5033954;28;20033;-59
2023/01/29 13:20:09;;;;;;;46.25;26.48;;;5.40;99.90;;;;;;5049779;28;20186;-59
2023/01/29 13:22:38;;;;;;;42.67;25.40;;;5.40;99.90;;;;;;5035762;28;20052;-59
2023/01/29 13:25:05;;;;;;;43.30;26.70;;;5.40;99.90;;;;;;5034126;28;20617;-59
2023/01/29 13:27:33;;;;;;;46.08;27.92;;;5.40;99.90;;;;;;5039697;28;20082;-58
2023/01/29 13:30:00;;;;;;;44.92;27.55;;;5.30;99.90;;;;;;5036162;28;20485;-59
2023/01/29 13:32:28;;;;;;;42.95;27.10;;;5.30;99.90;;;;;;5039021;28;20056;-59
2023/01/29 13:35:11;;;;;;;45.38;27.80;;;5.30;99.90;;;;;;5043254;28;20347;-58
2023/01/29 13:37:47;;;;;;;48.03;30.08;;;5.30;99.90;;;;;;5044434;22;20046;-62
2023/01/29 13:40:27;;;;;;;49.17;29.30;;;5.30;99.90;;;;;;5024815;28;20069;-62
2023/01/29 13:42:54;;;;;;;42.80;27.98;;;5.20;99.90;;;;;;5024394;28;20080;-62